sensor_id;sensor_type;location;lat;lon;timestamp;pressure;altitude;pressure_sealevel;temperature;humidity
25526;BME280;13424;48.424;11.258;2024-03-07T00:00:09;95949.41;;;9.47;77.94
25526;BME280;13424;48.424;11.258;2024-03-07T00:02:46;95952.50;;;9.62;77.50
25526;BME280;13424;48.424;11.258;2024-03-07T00:05:14;95953.22;;;9.69;77.25
25526;BME280;13424;48.424;11.258;2024-03-07T00:07:42;95948.47;;;9.23;78.78
25526;BME280;13424;48.424;11.258;2024-03-07T00:10:09;95952.44;;;9.99;76.55
25526;BME280;13424;48.424;11.258;2024-03-07T00:12:37;95957.72;;;9.57;77.82
25526;BME280;13424;48.424;11.258;2024-03-07T00:15:06;95957.09;;;9.55;77.80
25526;BME280;13424;48.424;11.258;2024-03-07T00:17:33;95955.09;;;9.69;77.26
25526;BME280;13424;48.424;11.258;2024-03-07T00:20:01;95958.56;;;9.69;77.14
25526;BME280;13424;48.424;11.258;2024-03-07T00:22:28;95957.72;;;9.39;78.28
25526;BME280;13424;48.424;11.258;2024-03-07T00:24:56;95957.78;;;9.50;77.88
25526;BME280;13424;48.424;11.258;2024-03-07T00:27:23;95958.91;;;9.43;78.24
25526;BME280;13424;48.424;11.258;2024-03-07T00:29:49;95957.53;;;10.00;76.19
25526;BME280;13424;48.424;11.258;2024-03-07T00:32:23;95949.19;;;9.97;75.69
25526;BME280;13424;48.424;11.258;2024-03-07T00:34:50;95951.47;;;9.63;76.76
25526;BME280;13424;48.424;11.258;2024-03-07T00:37:16;95950.88;;;9.79;76.68
25526;BME280;13424;48.424;11.258;2024-03-07T00:39:43;95950.66;;;9.63;76.80
25526;BME280;13424;48.424;11.258;2024-03-07T00:42:09;95946.38;;;9.92;76.39
25526;BME280;13424;48.424;11.258;2024-03-07T00:44:35;95948.59;;;9.65;76.72
25526;BME280;13424;48.424;11.258;2024-03-07T00:47:02;95948.31;;;9.36;78.09
25526;BME280;13424;48.424;11.258;2024-03-07T00:49:30;95943.19;;;9.53;77.24
25526;BME280;13424;48.424;11.258;2024-03-07T00:51:58;95938.34;;;9.50;77.10
25526;BME280;13424;48.424;11.258;2024-03-07T00:54:25;95941.41;;;9.65;76.42
25526;BME280;13424;48.424;11.258;2024-03-07T00:56:50;95942.88;;;9.79;75.93
25526;BME280;13424;48.424;11.258;2024-03-07T00:59:17;95944.19;;;9.89;75.53
25526;BME280;13424;48.424;11.258;2024-03-07T01:01:43;95940.69;;;9.88;75.50
25526;BME280;13424;48.424;11.258;2024-03-07T01:04:09;95934.59;;;9.69;75.70
25526;BME280;13424;48.424;11.258;2024-03-07T01:06:35;95930.03;;;9.88;75.00
25526;BME280;13424;48.424;11.258;2024-03-07T01:09:03;95928.94;;;9.77;75.27
25526;BME280;13424;48.424;11.258;2024-03-07T01:11:30;95923.25;;;9.44;75.78
25526;BME280;13424;48.424;11.258;2024-03-07T01:13:56;95923.41;;;9.31;76.64
25526;BME280;13424;48.424;11.258;2024-03-07T01:16:23;95927.25;;;9.35;76.07
25526;BME280;13424;48.424;11.258;2024-03-07T01:18:49;95927.38;;;9.40;75.49
25526;BME280;13424;48.424;11.258;2024-03-07T01:21:15;95920.41;;;9.09;76.22
25526;BME280;13424;48.424;11.258;2024-03-07T01:23:41;95918.25;;;9.17;76.11
25526;BME280;13424;48.424;11.258;2024-03-07T01:26:07;95921.88;;;9.05;76.75
25526;BME280;13424;48.424;11.258;2024-03-07T01:28:34;95916.91;;;9.27;75.74
25526;BME280;13424;48.424;11.258;2024-03-07T01:31:00;95912.94;;;9.17;75.88
25526;BME280;13424;48.424;11.258;2024-03-07T01:33:26;95911.28;;;8.80;75.96
25526;BME280;13424;48.424;11.258;2024-03-07T01:35:53;95908.13;;;8.71;76.75
25526;BME280;13424;48.424;11.258;2024-03-07T01:38:19;95915.75;;;8.86;75.87
25526;BME280;13424;48.424;11.258;2024-03-07T01:40:45;95913.53;;;9.01;75.72
25526;BME280;13424;48.424;11.258;2024-03-07T01:43:11;95911.00;;;8.88;75.46
25526;BME280;13424;48.424;11.258;2024-03-07T01:45:38;95920.59;;;8.89;75.59
25526;BME280;13424;48.424;11.258;2024-03-07T01:48:08;95903.16;;;8.75;76.48
25526;BME280;13424;48.424;11.258;2024-03-07T01:50:35;95902.31;;;8.31;79.19
25526;BME280;13424;48.424;11.258;2024-03-07T01:53:06;95902.97;;;8.51;78.37
25526;BME280;13424;48.424;11.258;2024-03-07T01:55:34;95902.59;;;8.23;78.18
25526;BME280;13424;48.424;11.258;2024-03-07T01:58:03;95890.44;;;8.77;76.96
25526;BME280;13424;48.424;11.258;2024-03-07T02:00:30;95893.38;;;8.68;76.41
25526;BME280;13424;48.424;11.258;2024-03-07T02:02:57;95898.97;;;8.85;75.85
25526;BME280;13424;48.424;11.258;2024-03-07T02:05:23;95892.38;;;8.88;75.34
25526;BME280;13424;48.424;11.258;2024-03-07T02:07:50;95893.91;;;8.34;76.85
25526;BME280;13424;48.424;11.258;2024-03-07T02:10:17;95884.66;;;8.43;75.56
25526;BME280;13424;48.424;11.258;2024-03-07T02:12:44;95879.59;;;7.53;77.89
25526;BME280;13424;48.424;11.258;2024-03-07T02:15:10;95883.78;;;8.24;76.19
25526;BME280;13424;48.424;11.258;2024-03-07T02:17:37;95871.19;;;7.88;75.77
25526;BME280;13424;48.424;11.258;2024-03-07T02:20:05;95876.19;;;8.03;75.36
25526;BME280;13424;48.424;11.258;2024-03-07T02:22:33;95878.72;;;8.16;74.81
25526;BME280;13424;48.424;11.258;2024-03-07T02:24:59;95871.13;;;7.95;75.97
25526;BME280;13424;48.424;11.258;2024-03-07T02:27:25;95869.16;;;8.33;74.29
25526;BME280;13424;48.424;11.258;2024-03-07T02:29:51;95863.31;;;8.25;73.76
25526;BME280;13424;48.424;11.258;2024-03-07T02:32:17;95859.78;;;7.81;75.79
25526;BME280;13424;48.424;11.258;2024-03-07T02:34:43;95865.25;;;7.61;76.03
25526;BME280;13424;48.424;11.258;2024-03-07T02:37:10;95871.50;;;6.97;78.88
25526;BME280;13424;48.424;11.258;2024-03-07T02:39:36;95860.78;;;7.17;77.04
25526;BME280;13424;48.424;11.258;2024-03-07T02:42:03;95868.19;;;7.46;76.43
25526;BME280;13424;48.424;11.258;2024-03-07T02:44:29;95857.56;;;7.46;75.23
25526;BME280;13424;48.424;11.258;2024-03-07T02:46:55;95863.72;;;7.40;74.57
25526;BME280;13424;48.424;11.258;2024-03-07T02:49:21;95864.19;;;7.69;73.80
25526;BME280;13424;48.424;11.258;2024-03-07T02:51:48;95859.53;;;7.57;74.05
25526;BME280;13424;48.424;11.258;2024-03-07T02:54:14;95861.59;;;7.55;73.99
25526;BME280;13424;48.424;11.258;2024-03-07T02:56:40;95862.38;;;7.24;73.85
25526;BME280;13424;48.424;11.258;2024-03-07T02:59:06;95866.03;;;7.30;74.03
25526;BME280;13424;48.424;11.258;2024-03-07T03:01:34;95862.66;;;7.10;73.88
25526;BME280;13424;48.424;11.258;2024-03-07T03:04:00;95864.66;;;6.63;76.70
25526;BME280;13424;48.424;11.258;2024-03-07T03:06:26;95865.00;;;6.86;74.84
25526;BME280;13424;48.424;11.258;2024-03-07T03:08:52;95859.69;;;6.86;74.06
25526;BME280;13424;48.424;11.258;2024-03-07T03:11:21;95872.56;;;6.89;74.35
25526;BME280;13424;48.424;11.258;2024-03-07T03:13:46;95879.91;;;6.87;74.40
25526;BME280;13424;48.424;11.258;2024-03-07T03:16:15;95871.31;;;6.85;73.96
25526;BME280;13424;48.424;11.258;2024-03-07T03:18:41;95881.19;;;6.65;74.59
25526;BME280;13424;48.424;11.258;2024-03-07T03:21:07;95874.69;;;6.48;75.00
25526;BME280;13424;48.424;11.258;2024-03-07T03:23:33;95879.59;;;6.37;75.30
25526;BME280;13424;48.424;11.258;2024-03-07T03:26:00;95872.44;;;6.51;74.33
25526;BME280;13424;48.424;11.258;2024-03-07T03:28:26;95877.53;;;6.59;74.51
25526;BME280;13424;48.424;11.258;2024-03-07T03:30:52;95876.72;;;6.59;73.85
25526;BME280;13424;48.424;11.258;2024-03-07T03:33:19;95874.06;;;6.52;75.25
25526;BME280;13424;48.424;11.258;2024-03-07T03:35:47;95875.34;;;6.17;76.69
25526;BME280;13424;48.424;11.258;2024-03-07T03:38:19;95875.75;;;6.07;77.46
25526;BME280;13424;48.424;11.258;2024-03-07T03:40:45;95870.66;;;5.99;77.34
25526;BME280;13424;48.424;11.258;2024-03-07T03:43:11;95866.94;;;6.53;74.86
25526;BME280;13424;48.424;11.258;2024-03-07T03:45:37;95865.97;;;6.40;74.85
25526;BME280;13424;48.424;11.258;2024-03-07T03:48:04;95869.84;;;6.25;75.12
25526;BME280;13424;48.424;11.258;2024-03-07T03:50:30;95862.50;;;6.33;74.31
25526;BME280;13424;48.424;11.258;2024-03-07T03:52:57;95868.16;;;6.50;74.17
25526;BME280;13424;48.424;11.258;2024-03-07T03:55:23;95870.84;;;6.30;73.53
25526;BME280;13424;48.424;11.258;2024-03-07T03:57:49;95869.41;;;6.41;73.80
25526;BME280;13424;48.424;11.258;2024-03-07T04:00:15;95863.09;;;6.35;74.15
25526;BME280;13424;48.424;11.258;2024-03-07T04:02:46;95856.81;;;6.10;74.75
25526;BME280;13424;48.424;11.258;2024-03-07T04:05:16;95862.91;;;6.30;73.89
25526;BME280;13424;48.424;11.258;2024-03-07T04:07:42;95857.59;;;6.30;73.58
25526;BME280;13424;48.424;11.258;2024-03-07T04:10:09;95864.13;;;6.34;73.74
25526;BME280;13424;48.424;11.258;2024-03-07T04:12:38;95850.50;;;6.04;74.55
25526;BME280;13424;48.424;11.258;2024-03-07T04:15:14;95867.41;;;6.03;74.90
25526;BME280;13424;48.424;11.258;2024-03-07T04:17:42;95857.59;;;6.30;74.20
25526;BME280;13424;48.424;11.258;2024-03-07T04:20:13;95860.06;;;6.25;74.01
25526;BME280;13424;48.424;11.258;2024-03-07T04:22:39;95855.97;;;6.29;74.00
25526;BME280;13424;48.424;11.258;2024-03-07T04:25:07;95854.13;;;6.36;73.83
25526;BME280;13424;48.424;11.258;2024-03-07T04:27:34;95855.97;;;6.29;73.25
25526;BME280;13424;48.424;11.258;2024-03-07T04:30:07;95853.53;;;6.08;74.59
25526;BME280;13424;48.424;11.258;2024-03-07T04:32:39;95856.59;;;5.92;74.64
25526;BME280;13424;48.424;11.258;2024-03-07T04:35:08;95854.34;;;6.28;73.46
25526;BME280;13424;48.424;11.258;2024-03-07T04:37:37;95852.28;;;5.84;75.54
25526;BME280;13424;48.424;11.258;2024-03-07T04:40:08;95847.81;;;5.65;75.77
25526;BME280;13424;48.424;11.258;2024-03-07T04:42:48;95846.22;;;6.10;73.88
25526;BME280;13424;48.424;11.258;2024-03-07T04:45:18;95851.09;;;6.00;74.78
25526;BME280;13424;48.424;11.258;2024-03-07T04:47:45;95850.88;;;5.88;75.37
25526;BME280;13424;48.424;11.258;2024-03-07T04:50:13;95852.34;;;6.10;74.40
25526;BME280;13424;48.424;11.258;2024-03-07T04:52:42;95857.19;;;5.87;74.21
25526;BME280;13424;48.424;11.258;2024-03-07T04:55:09;95846.00;;;5.92;74.61
25526;BME280;13424;48.424;11.258;2024-03-07T04:57:40;95847.22;;;5.82;74.88
25526;BME280;13424;48.424;11.258;2024-03-07T05:00:12;95853.16;;;6.04;74.06
25526;BME280;13424;48.424;11.258;2024-03-07T05:02:43;95849.91;;;6.09;73.73
25526;BME280;13424;48.424;11.258;2024-03-07T05:05:10;95853.16;;;6.04;73.36
25526;BME280;13424;48.424;11.258;2024-03-07T05:07:36;95849.03;;;5.82;74.38
25526;BME280;13424;48.424;11.258;2024-03-07T05:10:04;95850.28;;;5.86;73.80
25526;BME280;13424;48.424;11.258;2024-03-07T05:12:34;95851.09;;;5.80;73.79
25526;BME280;13424;48.424;11.258;2024-03-07T05:15:00;95844.97;;;5.59;74.45
25526;BME280;13424;48.424;11.258;2024-03-07T05:17:26;95849.03;;;5.49;74.09
25526;BME280;13424;48.424;11.258;2024-03-07T05:19:52;95845.78;;;5.67;73.70
25526;BME280;13424;48.424;11.258;2024-03-07T05:22:18;95850.44;;;5.45;74.80
25526;BME280;13424;48.424;11.258;2024-03-07T05:24:46;95847.69;;;5.05;76.18
25526;BME280;13424;48.424;11.258;2024-03-07T05:27:12;95855.94;;;5.50;74.35
25526;BME280;13424;48.424;11.258;2024-03-07T05:29:39;95850.69;;;5.63;73.74
25526;BME280;13424;48.424;11.258;2024-03-07T05:32:26;95850.44;;;5.45;74.04
25526;BME280;13424;48.424;11.258;2024-03-07T05:34:53;95856.31;;;5.33;74.50
25526;BME280;13424;48.424;11.258;2024-03-07T05:37:20;95861.66;;;5.67;73.88
25526;BME280;13424;48.424;11.258;2024-03-07T05:39:52;95859.63;;;5.62;73.55
25526;BME280;13424;48.424;11.258;2024-03-07T05:42:19;95851.00;;;5.27;74.69
25526;BME280;13424;48.424;11.258;2024-03-07T05:44:45;95856.78;;;5.64;73.49
25526;BME280;13424;48.424;11.258;2024-03-07T05:47:11;95861.19;;;5.37;74.67
25526;BME280;13424;48.424;11.258;2024-03-07T05:49:39;95861.03;;;5.58;73.95
25526;BME280;13424;48.424;11.258;2024-03-07T05:52:06;95861.38;;;5.15;74.67
25526;BME280;13424;48.424;11.258;2024-03-07T05:54:33;95864.09;;;5.55;73.89
25526;BME280;13424;48.424;11.258;2024-03-07T05:56:59;95869.38;;;5.68;73.11
25526;BME280;13424;48.424;11.258;2024-03-07T05:59:26;95864.22;;;5.20;74.96
25526;BME280;13424;48.424;11.258;2024-03-07T06:01:54;95858.41;;;5.58;73.52
25526;BME280;13424;48.424;11.258;2024-03-07T06:04:21;95863.09;;;5.82;72.76
25526;BME280;13424;48.424;11.258;2024-03-07T06:06:47;95869.25;;;5.96;72.45
25526;BME280;13424;48.424;11.258;2024-03-07T06:09:14;95863.34;;;6.01;72.10
25526;BME280;13424;48.424;11.258;2024-03-07T06:11:41;95858.19;;;5.66;72.82
25526;BME280;13424;48.424;11.258;2024-03-07T06:14:10;95867.38;;;5.77;72.98
25526;BME280;13424;48.424;11.258;2024-03-07T06:16:40;95864.75;;;5.77;73.23
25526;BME280;13424;48.424;11.258;2024-03-07T06:19:08;95866.34;;;5.71;74.48
25526;BME280;13424;48.424;11.258;2024-03-07T06:21:39;95857.19;;;5.87;73.43
25526;BME280;13424;48.424;11.258;2024-03-07T06:24:06;95861.06;;;5.71;72.87
25526;BME280;13424;48.424;11.258;2024-03-07T06:26:38;95861.91;;;6.11;73.11
25526;BME280;13424;48.424;11.258;2024-03-07T06:29:07;95864.66;;;6.63;71.57
25526;BME280;13424;48.424;11.258;2024-03-07T06:31:40;95861.25;;;6.42;71.68
25526;BME280;13424;48.424;11.258;2024-03-07T06:34:09;95859.59;;;6.55;71.52
25526;BME280;13424;48.424;11.258;2024-03-07T06:36:35;95868.38;;;6.49;71.59
25526;BME280;13424;48.424;11.258;2024-03-07T06:39:02;95863.38;;;6.79;70.95
25526;BME280;13424;48.424;11.258;2024-03-07T06:41:36;95854.69;;;6.65;70.98
25526;BME280;13424;48.424;11.258;2024-03-07T06:44:03;95859.69;;;6.02;73.37
25526;BME280;13424;48.424;11.258;2024-03-07T06:46:29;95867.59;;;6.35;72.81
25526;BME280;13424;48.424;11.258;2024-03-07T06:48:56;95856.34;;;6.39;72.39
25526;BME280;13424;48.424;11.258;2024-03-07T06:51:23;95867.81;;;6.20;72.82
25526;BME280;13424;48.424;11.258;2024-03-07T06:53:50;95863.31;;;6.14;72.49
25526;BME280;13424;48.424;11.258;2024-03-07T06:56:17;95869.44;;;6.28;72.45
25526;BME280;13424;48.424;11.258;2024-03-07T06:58:44;95869.03;;;6.18;72.93
25526;BME280;13424;48.424;11.258;2024-03-07T07:01:14;95875.31;;;6.30;72.89
25526;BME280;13424;48.424;11.258;2024-03-07T07:03:45;95872.06;;;6.34;72.82
25526;BME280;13424;48.424;11.258;2024-03-07T07:06:11;95879.22;;;6.40;73.03
25526;BME280;13424;48.424;11.258;2024-03-07T07:08:38;95877.59;;;6.13;73.46
25526;BME280;13424;48.424;11.258;2024-03-07T07:11:04;95873.91;;;6.27;72.53
25526;BME280;13424;48.424;11.258;2024-03-07T07:13:31;95876.34;;;6.42;72.69
25526;BME280;13424;48.424;11.258;2024-03-07T07:15:57;95877.78;;;5.78;73.97
25526;BME280;13424;48.424;11.258;2024-03-07T07:18:23;95877.16;;;6.42;72.58
25526;BME280;13424;48.424;11.258;2024-03-07T07:20:50;95874.94;;;6.33;72.80
25526;BME280;13424;48.424;11.258;2024-03-07T07:23:20;95879.91;;;6.87;71.32
25526;BME280;13424;48.424;11.258;2024-03-07T07:25:46;95865.53;;;7.02;71.44
25526;BME280;13424;48.424;11.258;2024-03-07T07:28:12;95875.38;;;6.94;72.04
25526;BME280;13424;48.424;11.258;2024-03-07T07:30:39;95879.59;;;6.37;72.86
25526;BME280;13424;48.424;11.258;2024-03-07T07:33:05;95870.44;;;7.05;70.71
25526;BME280;13424;48.424;11.258;2024-03-07T07:35:31;95875.81;;;7.36;70.84
25526;BME280;13424;48.424;11.258;2024-03-07T07:37:57;95870.13;;;6.81;71.13
25526;BME280;13424;48.424;11.258;2024-03-07T07:40:24;95876.72;;;7.55;69.46
25526;BME280;13424;48.424;11.258;2024-03-07T07:42:53;95874.47;;;7.14;70.11
25526;BME280;13424;48.424;11.258;2024-03-07T07:45:22;95868.53;;;6.67;71.23
25526;BME280;13424;48.424;11.258;2024-03-07T07:47:52;95867.88;;;7.68;68.32
25526;BME280;13424;48.424;11.258;2024-03-07T07:50:22;95863.25;;;7.50;69.57
25526;BME280;13424;48.424;11.258;2024-03-07T07:55:20;95870.66;;;7.41;69.97
25526;BME280;13424;48.424;11.258;2024-03-07T07:57:51;95865.78;;;7.38;70.59
25526;BME280;13424;48.424;11.258;2024-03-07T08:00:24;95858.59;;;7.45;70.48
25526;BME280;13424;48.424;11.258;2024-03-07T08:02:53;95858.06;;;7.30;69.70
25526;BME280;13424;48.424;11.258;2024-03-07T08:05:22;95852.44;;;7.51;69.74
25526;BME280;13424;48.424;11.258;2024-03-07T08:07:51;95865.31;;;7.48;70.50
25526;BME280;13424;48.424;11.258;2024-03-07T08:10:21;95860.78;;;8.11;68.05
25526;BME280;13424;48.424;11.258;2024-03-07T08:12:49;95865.28;;;7.16;71.71
25526;BME280;13424;48.424;11.258;2024-03-07T08:15:16;95865.03;;;7.63;71.15
25526;BME280;13424;48.424;11.258;2024-03-07T08:17:46;95864.81;;;7.89;68.68
25526;BME280;13424;48.424;11.258;2024-03-07T08:20:18;95869.91;;;8.22;68.68
25526;BME280;13424;48.424;11.258;2024-03-07T08:22:47;95861.53;;;8.44;66.71
25526;BME280;13424;48.424;11.258;2024-03-07T08:25:17;95861.28;;;8.70;67.83
25526;BME280;13424;48.424;11.258;2024-03-07T08:27:50;95867.41;;;8.71;66.81
25526;BME280;13424;48.424;11.258;2024-03-07T08:30:17;95867.34;;;8.95;66.12
25526;BME280;13424;48.424;11.258;2024-03-07T08:32:53;95861.41;;;8.38;68.88
25526;BME280;13424;48.424;11.258;2024-03-07T08:35:20;95861.19;;;8.58;67.53
25526;BME280;13424;48.424;11.258;2024-03-07T08:37:48;95860.94;;;8.42;68.52
25526;BME280;13424;48.424;11.258;2024-03-07T08:40:29;95860.94;;;8.42;68.11
25526;BME280;13424;48.424;11.258;2024-03-07T08:43:00;95853.84;;;8.10;70.04
25526;BME280;13424;48.424;11.258;2024-03-07T08:45:28;95860.47;;;8.88;68.34
25526;BME280;13424;48.424;11.258;2024-03-07T08:47:57;95856.75;;;9.07;68.40
25526;BME280;13424;48.424;11.258;2024-03-07T08:50:24;95856.50;;;9.27;66.58
25526;BME280;13424;48.424;11.258;2024-03-07T08:52:52;95860.00;;;8.91;66.68
25526;BME280;13424;48.424;11.258;2024-03-07T08:55:23;95858.06;;;8.43;69.09
25526;BME280;13424;48.424;11.258;2024-03-07T08:57:53;95859.84;;;8.67;67.02
25526;BME280;13424;48.424;11.258;2024-03-07T09:00:19;95856.09;;;8.75;67.10
25526;BME280;13424;48.424;11.258;2024-03-07T09:03:00;95857.25;;;9.46;66.03
25526;BME280;13424;48.424;11.258;2024-03-07T09:05:30;95856.09;;;8.32;72.68
25526;BME280;13424;48.424;11.258;2024-03-07T09:07:59;95853.66;;;8.74;69.09
25526;BME280;13424;48.424;11.258;2024-03-07T09:10:25;95855.00;;;9.61;66.07
25526;BME280;13424;48.424;11.258;2024-03-07T09:12:52;95862.41;;;10.01;65.18
25526;BME280;13424;48.424;11.258;2024-03-07T09:15:18;95865.34;;;9.69;64.12
25526;BME280;13424;48.424;11.258;2024-03-07T09:17:47;95854.91;;;9.68;65.14
25526;BME280;13424;48.424;11.258;2024-03-07T09:20:13;95858.78;;;9.42;67.91
25526;BME280;13424;48.424;11.258;2024-03-07T09:22:46;95856.50;;;9.99;65.59
25526;BME280;13424;48.424;11.258;2024-03-07T09:25:13;95854.25;;;8.94;66.72
25526;BME280;13424;48.424;11.258;2024-03-07T09:27:40;95849.66;;;8.46;70.82
25526;BME280;13424;48.424;11.258;2024-03-07T09:30:08;95852.25;;;10.21;66.68
25526;BME280;13424;48.424;11.258;2024-03-07T09:32:41;95851.97;;;9.99;64.33
25526;BME280;13424;48.424;11.258;2024-03-07T09:35:09;95857.00;;;10.19;65.61
25526;BME280;13424;48.424;11.258;2024-03-07T09:37:43;95851.44;;;9.67;65.49
25526;BME280;13424;48.424;11.258;2024-03-07T09:40:10;95856.44;;;10.76;63.48
25526;BME280;13424;48.424;11.258;2024-03-07T09:42:49;95858.19;;;10.47;64.84
25526;BME280;13424;48.424;11.258;2024-03-07T09:45:20;95851.81;;;9.83;67.94
25526;BME280;13424;48.424;11.258;2024-03-07T09:47:50;95841.50;;;10.40;66.58
25526;BME280;13424;48.424;11.258;2024-03-07T09:50:21;95843.28;;;11.38;63.40
25526;BME280;13424;48.424;11.258;2024-03-07T09:52:49;95849.06;;;10.01;66.30
25526;BME280;13424;48.424;11.258;2024-03-07T09:55:19;95847.34;;;10.06;67.51
25526;BME280;13424;48.424;11.258;2024-03-07T09:57:50;95851.50;;;9.49;68.52
25526;BME280;13424;48.424;11.258;2024-03-07T10:00:20;95852.91;;;9.63;69.25
25526;BME280;13424;48.424;11.258;2024-03-07T10:03:05;95849.56;;;10.21;66.49
25526;BME280;13424;48.424;11.258;2024-03-07T10:05:34;95851.69;;;9.77;67.51
25526;BME280;13424;48.424;11.258;2024-03-07T10:08:04;95841.66;;;9.79;66.47
25526;BME280;13424;48.424;11.258;2024-03-07T10:10:30;95846.69;;;10.70;67.65
25526;BME280;13424;48.424;11.258;2024-03-07T10:12:56;95851.00;;;10.47;67.60
25526;BME280;13424;48.424;11.258;2024-03-07T10:15:32;95841.66;;;9.49;68.00
25526;BME280;13424;48.424;11.258;2024-03-07T10:17:59;95835.56;;;9.61;66.51
25526;BME280;13424;48.424;11.258;2024-03-07T10:20:26;95839.03;;;9.61;66.86
25526;BME280;13424;48.424;11.258;2024-03-07T10:22:53;95838.84;;;9.74;65.53
25526;BME280;13424;48.424;11.258;2024-03-07T10:25:23;95841.44;;;9.51;67.27
25526;BME280;13424;48.424;11.258;2024-03-07T10:27:53;95834.03;;;9.53;68.21
25526;BME280;13424;48.424;11.258;2024-03-07T10:30:20;95840.56;;;9.69;67.75
25526;BME280;13424;48.424;11.258;2024-03-07T10:32:58;95833.63;;;9.38;67.52
25526;BME280;13424;48.424;11.258;2024-03-07T10:35:25;95827.84;;;9.83;67.47
25526;BME280;13424;48.424;11.258;2024-03-07T10:37:55;95826.88;;;10.30;66.07
25526;BME280;13424;48.424;11.258;2024-03-07T10:40:24;95827.22;;;10.57;63.82
25526;BME280;13424;48.424;11.258;2024-03-07T10:42:57;95827.59;;;10.38;65.98
25526;BME280;13424;48.424;11.258;2024-03-07T10:45:23;95827.78;;;11.11;62.68
25526;BME280;13424;48.424;11.258;2024-03-07T10:47:58;95827.88;;;9.41;66.48
25526;BME280;13424;48.424;11.258;2024-03-07T10:53:59;95824.13;;;10.89;64.26
25526;BME280;13424;48.424;11.258;2024-03-07T10:56:54;95819.00;;;11.39;61.97
25526;BME280;13424;48.424;11.258;2024-03-07T10:59:26;95815.00;;;11.70;64.30
25526;BME280;13424;48.424;11.258;2024-03-07T11:02:33;95813.66;;;12.35;61.28
25526;BME280;13424;48.424;11.258;2024-03-07T11:05:03;95819.59;;;12.04;62.38
25526;BME280;13424;48.424;11.258;2024-03-07T11:07:33;95817.88;;;10.95;61.64
25526;BME280;13424;48.424;11.258;2024-03-07T11:10:01;95816.59;;;11.26;63.96
25526;BME280;13424;48.424;11.258;2024-03-07T11:12:29;95817.63;;;11.82;63.06
25526;BME280;13424;48.424;11.258;2024-03-07T11:14:56;95820.16;;;10.40;66.08
25526;BME280;13424;48.424;11.258;2024-03-07T11:17:23;95811.34;;;10.51;65.20
25526;BME280;13424;48.424;11.258;2024-03-07T11:19:50;95812.97;;;10.52;64.23
25526;BME280;13424;48.424;11.258;2024-03-07T11:22:30;95806.38;;;10.95;65.39
25526;BME280;13424;48.424;11.258;2024-03-07T11:25:05;95812.78;;;11.51;61.32
25526;BME280;13424;48.424;11.258;2024-03-07T11:27:38;95805.06;;;11.09;62.99
25526;BME280;13424;48.424;11.258;2024-03-07T11:30:10;95801.78;;;10.78;65.60
25526;BME280;13424;48.424;11.258;2024-03-07T11:32:40;95807.88;;;10.39;67.17
25526;BME280;13424;48.424;11.258;2024-03-07T11:35:13;95804.63;;;11.00;63.45
25526;BME280;13424;48.424;11.258;2024-03-07T11:37:44;95804.72;;;10.42;64.90
25526;BME280;13424;48.424;11.258;2024-03-07T11:42:48;95795.00;;;8.87;67.17
25526;BME280;13424;48.424;11.258;2024-03-07T11:45:16;95792.09;;;10.25;63.36
25526;BME280;13424;48.424;11.258;2024-03-07T11:47:59;95798.81;;;10.16;63.70
25526;BME280;13424;48.424;11.258;2024-03-07T11:50:39;95787.59;;;10.26;65.72
25526;BME280;13424;48.424;11.258;2024-03-07T11:53:08;95787.53;;;10.02;66.17
25526;BME280;13424;48.424;11.258;2024-03-07T11:55:39;95775.59;;;10.75;63.64
25526;BME280;13424;48.424;11.258;2024-03-07T11:58:19;95778.03;;;10.18;62.46
25526;BME280;13424;48.424;11.258;2024-03-07T12:00:50;95775.53;;;10.23;64.07
25526;BME280;13424;48.424;11.258;2024-03-07T12:03:21;95773.78;;;10.05;63.69
25526;BME280;13424;48.424;11.258;2024-03-07T12:05:50;95775.72;;;9.87;63.87
25526;BME280;13424;48.424;11.258;2024-03-07T12:08:19;95770.19;;;10.00;63.66
25526;BME280;13424;48.424;11.258;2024-03-07T12:10:48;95764.59;;;10.60;61.69
25526;BME280;13424;48.424;11.258;2024-03-07T12:13:19;95763.81;;;10.01;62.73
25526;BME280;13424;48.424;11.258;2024-03-07T12:15:46;95765.25;;;9.50;63.77
25526;BME280;13424;48.424;11.258;2024-03-07T12:18:12;95756.97;;;10.17;64.26
25526;BME280;13424;48.424;11.258;2024-03-07T12:20:41;95758.91;;;10.68;62.01
25526;BME280;13424;48.424;11.258;2024-03-07T12:23:08;95754.66;;;10.44;63.14
25526;BME280;13424;48.424;11.258;2024-03-07T12:25:36;95763.34;;;10.04;62.51
25526;BME280;13424;48.424;11.258;2024-03-07T12:28:08;95762.88;;;10.07;62.27
25526;BME280;13424;48.424;11.258;2024-03-07T12:30:55;95756.16;;;9.81;62.53
25526;BME280;13424;48.424;11.258;2024-03-07T12:33:23;95753.38;;;10.34;62.01
25526;BME280;13424;48.424;11.258;2024-03-07T12:35:53;95760.47;;;10.05;63.83
25526;BME280;13424;48.424;11.258;2024-03-07T12:38:26;95751.41;;;10.53;64.11
25526;BME280;13424;48.424;11.258;2024-03-07T12:41:09;95750.16;;;10.84;63.11
25526;BME280;13424;48.424;11.258;2024-03-07T12:43:45;95748.47;;;10.55;61.92
25526;BME280;13424;48.424;11.258;2024-03-07T12:46:18;95739.63;;;10.66;60.70
25526;BME280;13424;48.424;11.258;2024-03-07T12:48:44;95747.66;;;10.95;61.60
25526;BME280;13424;48.424;11.258;2024-03-07T12:51:10;95735.66;;;11.09;62.07
25526;BME280;13424;48.424;11.258;2024-03-07T12:53:39;95736.47;;;11.55;59.56
25526;BME280;13424;48.424;11.258;2024-03-07T12:56:11;95739.66;;;11.85;60.21
25526;BME280;13424;48.424;11.258;2024-03-07T12:58:42;95739.78;;;10.59;63.52
25526;BME280;13424;48.424;11.258;2024-03-07T13:01:11;95730.88;;;10.54;63.71
25526;BME280;13424;48.424;11.258;2024-03-07T13:03:38;95737.94;;;11.96;60.10
25526;BME280;13424;48.424;11.258;2024-03-07T13:06:04;95732.50;;;11.74;60.08
25526;BME280;13424;48.424;11.258;2024-03-07T13:08:33;95731.66;;;10.95;61.92
25526;BME280;13424;48.424;11.258;2024-03-07T13:10:59;95733.34;;;11.29;60.71
25526;BME280;13424;48.424;11.258;2024-03-07T13:13:25;95733.72;;;12.00;57.51